Licenciado Adolfo Lopez Mateos International Airport
MMTO : now visible

Airfield :











YOU CAN JOIN US ON...

 
LOGIN :

Register | Disclaimer

   EN    FR    IT 

 









Legend :    VFR   Marginal VFR   IFR   Intensive IFR   Very Intensive IFR
Visi :
Ceiling :
>= 8 km
>= 3000ft
5 to 8 km
1000 to 3000 ft
1500m to 5 km
500 to 1000 ft
800 to 1500m
200 to 500 ft
< 800m
< 200 ft
Symbols :   Thunderstorms  Fog  Heavy snow  Heavy precipitations  Wind > 20 kt






- Airport Elevation : 8466 ft
- IATA code : TLC


MMTO - Licenciado Adolfo Lopez Mateos International

CURRENT METAR :
  • 110846Z 00000KT 1/4SM FG R15/1400NFT VV002 05/03 A3040 RMK SLP/// 5//// 9// 8////

EXPIRED METARs :
  • 110747Z 00000KT 5SM SCT200 05/03 A3041 RMK 8/002 HZY
  • 110648Z 00000KT 5SM SCT200 05/02 A3040 RMK 8/002 HZY

TAF AMD TAF MMTO
Valid from the 11 at 09:00 until the 12 at 12:00 UTC


110857Z 1109/1212 00000KT 1/4SM FG VV002 TX20/1121Z TN04/1112Z
FM111500 00000KT 2SM BR BKN010
FM111600 06005KT 4SM HZ SCT015
FM112100 08010KT P6SM SCT015
FM120300 06005KT 5SM HZ SCT015
FM120900 00000KT 2SM BR HZ SCT010



MET'MAP, your aeronautical weather chart ! - Copyright ORBIFLY December 2007 - Disclaimer

ORBIFLY MET'MAP TEAM :

Programming & Development : Alexandra Zaïnal
Concept & original design : Baudouin d'Aumeries
Assistance for programming : Marc-Olivier Méhu
Technical & hardware support : Manuel Goepfert

Contact : metmap@orbifly.com




SOURCES & CREDITS :

   NOAA       Earth
Advisory